Juno — MZUM3 — position and weather

sailwx.info

Track history (hours):
 
Tides and Currents Weather Stations Pressure Air Temp Water Temp Dewpoint Dewpoint Depression Visibility Wind Speed Wind Dir Waves Ship Positions

Juno

Last reported at 2018-May-13 19:05 UTC. Time now 2018-Jun-19 15:41 UTC.
Position N 17°01' W 061°46'.
Warning: this ship's position is 36 days out of date.

Type: Pleasure craft. MMSI: 232005260.

Date/timePositionNaut miles runAvg speedWind from/ knotsBaromVisibWave heightAir tempDewpointWater temp
2018-May-13 19:05N 17°01' W 061°46'0 0.0
2018-May-13 18:59N 17°01' W 061°46'0 0.0
2018-May-13 18:29N 17°01' W 061°46'0 0.0
2018-May-13 17:59N 17°01' W 061°46'0 0.0
2018-May-13 17:29N 17°01' W 061°46'  
2018-May-04 18:44N 17°01' W 061°46'0 0.0
2018-May-04 18:29N 17°01' W 061°46'0 0.0
2018-May-04 17:59N 17°01' W 061°46'0 0.0
2018-May-04 17:29N 17°01' W 061°46'0 0.0
2018-May-04 17:00N 17°01' W 061°46'1 1.9
2018-May-04 16:30N 16°60' W 061°47'4 7.2
2018-May-04 16:00N 16°60' W 061°43'1 2.4
2018-May-04 15:28N 17°01' W 061°42'0 0.8
2018-May-04 15:00N 17°01' W 061°42'3 6.5
2018-May-04 14:29N 16°59' W 061°45'1 3.0
2018-May-04 14:00N 16°60' W 061°47'1 1.9
2018-May-04 13:30N 17°01' W 061°47'1 0.0
2018-May-03 19:25N 17°01' W 061°46'  
Track history (hours):
 
Tides and Currents Weather Stations Pressure Air Temp Water Temp Dewpoint Dewpoint Depression Visibility Wind Speed Wind Dir Waves Ship Positions

Juno

Last reported at 2018-May-13 19:05 UTC. Time now 2018-Jun-19 15:41 UTC.
Position N 17°01' W 061°46'.
Warning: this ship's position is 36 days out of date.

Type: Pleasure craft. MMSI: 232005260.

Date/timePositionNaut miles runAvg speedWind from/ knotsBaromVisibWave heightAir tempDewpointWater temp
2018-May-13 19:05N 17°01' W 061°46'0 0.0
2018-May-13 18:59N 17°01' W 061°46'0 0.0
2018-May-13 18:29N 17°01' W 061°46'0 0.0
2018-May-13 17:59N 17°01' W 061°46'0 0.0
2018-May-13 17:29N 17°01' W 061°46'  
2018-May-04 18:44N 17°01' W 061°46'0 0.0
2018-May-04 18:29N 17°01' W 061°46'0 0.0
2018-May-04 17:59N 17°01' W 061°46'0 0.0
2018-May-04 17:29N 17°01' W 061°46'0 0.0
2018-May-04 17:00N 17°01' W 061°46'1 1.9
2018-May-04 16:30N 16°60' W 061°47'4 7.2
2018-May-04 16:00N 16°60' W 061°43'1 2.4
2018-May-04 15:28N 17°01' W 061°42'0 0.8
2018-May-04 15:00N 17°01' W 061°42'3 6.5
2018-May-04 14:29N 16°59' W 061°45'1 3.0
2018-May-04 14:00N 16°60' W 061°47'1 1.9
2018-May-04 13:30N 17°01' W 061°47'1 0.0
2018-May-03 19:25N 17°01' W 061°46'  

Dump ship's entire track history